Chibougamau Airport (YMT/CYMT)

Map

Destinations

Information

Location
Chibougamau, Quebec, Canada
Local Time
19:05 / 7:05 pm
GMT Time
00:05 / 12:05 am
Gates
Ramp
No FAA reported delays
METAR CYMT 252300Z AUTO 14007KT 9SM BKN160 BKN180 07/M06 A2999 RMK SLP178
TAF TAF CYMT 251742Z 2518/2524 12010G20KT P6SM SCT190 RMK FCST BASED ON AUTO OBS. NXT FCST WILL BE ISSUED AT 261145Z